Time;durP1;ratioP1;P1;durP2;ratioP2;P2;SDS_P1;SDS_P2;PMS_P1;PMS_P2;Temp;Humidity;BMP_temperature;BMP_pressure;BME280_temperature;BME280_humidity;BME280_pressure;Samples;Min_cycle;Max_cycle;Signal;HPM_P1;HPM_P2
2023/08/31 00:00:53;;;;;;;48.10;11.75;;;;;;;;;;4990157;28;20228;-81
2023/08/31 00:03:20;;;;;;;33.92;6.72;;;;;;;;;;4994585;28;20699;-82
2023/08/31 00:05:47;;;;;;;48.05;11.30;;;;;;;;;;4985748;28;20232;-81
2023/08/31 00:08:13;;;;;;;33.63;6.57;;;;;;;;;;4997628;28;20223;-82
2023/08/31 00:10:40;;;;;;;41.83;11.95;;;;;;;;;;4949242;28;20311;-81
2023/08/31 00:13:07;;;;;;;25.73;8.20;;;;;;;;;;4998221;28;20247;-81
2023/08/31 00:15:35;;;;;;;36.15;8.75;;;;;;;;;;4994053;28;20251;-81
2023/08/31 00:18:03;;;;;;;36.33;7.30;;;;;;;;;;4995219;28;20230;-82
2023/08/31 00:20:30;;;;;;;25.95;6.07;;;;;;;;;;4963476;28;20240;-82
2023/08/31 00:22:58;;;;;;;35.28;6.80;;;;;;;;;;4989851;28;20239;-81
2023/08/31 00:25:25;;;;;;;24.27;4.85;;;;;;;;;;4998927;28;20224;-81
2023/08/31 00:27:52;;;;;;;42.80;8.65;;;;;;;;;;4973421;28;20307;-81
2023/08/31 00:30:19;;;;;;;30.20;6.10;;;;;;;;;;4983951;28;20234;-81
2023/08/31 00:32:47;;;;;;;46.30;11.02;;;;;;;;;;4990332;28;20223;-81
2023/08/31 00:35:13;;;;;;;38.88;8.02;;;;;;;;;;4999511;28;20310;-81
2023/08/31 00:37:40;;;;;;;44.58;9.80;;;;;;;;;;4986927;28;20244;-80
2023/08/31 00:40:08;;;;;;;28.50;5.70;;;;;;;;;;4997093;28;20311;-80
2023/08/31 00:42:37;;;;;;;33.78;7.63;;;;;;;;;;4998249;28;20314;-78
2023/08/31 00:45:05;;;;;;;34.10;6.68;;;;;;;;;;4985317;28;20236;-80
2023/08/31 00:47:32;;;;;;;32.17;6.82;;;;;;;;;;4997363;28;20227;-79
2023/08/31 00:49:59;;;;;;;28.13;5.80;;;;;;;;;;4990909;28;20255;-79
2023/08/31 00:52:26;;;;;;;28.23;5.28;;;;;;;;;;4996926;28;20261;-82
2023/08/31 00:54:53;;;;;;;49.95;11.32;;;;;;;;;;4991904;28;20234;-80
2023/08/31 00:57:20;;;;;;;29.30;10.23;;;;;;;;;;4994427;28;20227;-79
2023/08/31 00:59:47;;;;;;;55.38;12.95;;;;;;;;;;4987972;28;20232;-80
2023/08/31 01:02:13;;;;;;;52.92;9.88;;;;;;;;;;4991503;28;20236;-80
2023/08/31 01:04:59;;;;;;;42.00;10.75;;;;;;;;;;4966374;28;20263;-79
2023/08/31 01:07:26;;;;;;;24.65;6.50;;;;;;;;;;4999678;28;20247;-82
2023/08/31 01:10:07;;;;;;;57.28;13.07;;;;;;;;;;4983978;28;20227;-82
2023/08/31 01:12:36;;;;;;;24.40;8.93;;;;;;;;;;4997559;28;20235;-81
2023/08/31 01:15:07;;;;;;;35.97;8.82;;;;;;;;;;4969683;28;20243;-82
2023/08/31 01:17:37;;;;;;;35.20;6.85;;;;;;;;;;4981472;28;20220;-82
2023/08/31 01:20:06;;;;;;;30.98;14.20;;;;;;;;;;4995322;28;20228;-80
2023/08/31 01:22:35;;;;;;;26.10;5.57;;;;;;;;;;4992763;28;20246;-82
2023/08/31 01:25:04;;;;;;;24.90;5.88;;;;;;;;;;4993574;28;20232;-81
2023/08/31 01:27:31;;;;;;;27.55;5.90;;;;;;;;;;4996949;28;20223;-82
2023/08/31 01:29:58;;;;;;;36.53;7.28;;;;;;;;;;4977922;28;20748;-82
2023/08/31 01:32:25;;;;;;;33.97;6.80;;;;;;;;;;4979380;28;20279;-79
2023/08/31 01:34:52;;;;;;;50.55;10.98;;;;;;;;;;4996884;28;20234;-79
2023/08/31 01:37:26;;;;;;;36.50;6.97;;;;;;;;;;4977784;28;20224;-82
2023/08/31 01:39:56;;;;;;;59.20;13.57;;;;;;;;;;4992211;28;20234;-78
2023/08/31 01:42:25;;;;;;;25.58;5.25;;;;;;;;;;4993549;28;20247;-80
2023/08/31 01:44:53;;;;;;;58.65;13.90;;;;;;;;;;4994592;28;20231;-79
2023/08/31 01:47:19;;;;;;;36.38;7.15;;;;;;;;;;4996152;28;20585;-80
2023/08/31 01:49:46;;;;;;;55.22;12.57;;;;;;;;;;4993999;28;20223;-80
2023/08/31 01:52:13;;;;;;;37.00;7.15;;;;;;;;;;4994372;28;20292;-80
2023/08/31 01:54:39;;;;;;;36.17;7.57;;;;;;;;;;4994081;28;20535;-78
2023/08/31 01:57:06;;;;;;;34.13;6.63;;;;;;;;;;4998734;28;20231;-81
2023/08/31 01:59:33;;;;;;;24.40;4.78;;;;;;;;;;4998192;28;20237;-84
2023/08/31 02:02:00;;;;;;;30.65;7.30;;;;;;;;;;4993951;28;20238;-82
2023/08/31 02:04:27;;;;;;;25.90;5.40;;;;;;;;;;4996339;28;20232;-82
2023/08/31 02:06:53;;;;;;;61.22;11.80;;;;;;;;;;4978158;28;20227;-83
2023/08/31 02:09:20;;;;;;;31.08;7.28;;;;;;;;;;4998118;28;20230;-83
2023/08/31 02:11:47;;;;;;;53.60;11.32;;;;;;;;;;4997919;28;20242;-83
2023/08/31 02:14:14;;;;;;;37.80;7.10;;;;;;;;;;5003418;28;20246;-83
2023/08/31 02:16:40;;;;;;;50.83;29.77;;;;;;;;;;4996646;28;20236;-83
2023/08/31 02:19:07;;;;;;;41.65;15.30;;;;;;;;;;5000715;28;20239;-83
2023/08/31 02:21:33;;;;;;;47.03;11.43;;;;;;;;;;4994558;28;20227;-82
2023/08/31 02:24:00;;;;;;;43.60;19.05;;;;;;;;;;4992516;28;20234;-83
2023/08/31 02:26:26;;;;;;;35.10;15.00;;;;;;;;;;5001781;28;20232;-81
2023/08/31 02:28:53;;;;;;;60.03;11.43;;;;;;;;;;4991588;28;20224;-84
2023/08/31 02:31:20;;;;;;;34.20;14.57;;;;;;;;;;4998679;28;20232;-81
2023/08/31 02:33:46;;;;;;;60.70;12.05;;;;;;;;;;4996653;28;20231;-81
2023/08/31 02:36:13;;;;;;;40.80;10.70;;;;;;;;;;4998563;28;20239;-81
2023/08/31 02:38:40;;;;;;;54.22;15.70;;;;;;;;;;4999595;28;20220;-79
2023/08/31 02:41:06;;;;;;;47.42;9.07;;;;;;;;;;5002759;28;20234;-79
2023/08/31 02:43:33;;;;;;;42.35;28.15;;;;;;;;;;5003339;28;20230;-80
2023/08/31 02:46:01;;;;;;;48.72;9.90;;;;;;;;;;4996734;28;20231;-80
2023/08/31 02:48:28;;;;;;;38.92;8.02;;;;;;;;;;5005737;28;20266;-79
2023/08/31 02:50:54;;;;;;;59.40;11.68;;;;;;;;;;4982449;28;20247;-78
2023/08/31 02:53:21;;;;;;;61.40;14.73;;;;;;;;;;4995481;28;20236;-80
2023/08/31 02:55:50;;;;;;;55.30;13.77;;;;;;;;;;4998681;28;20305;-79
2023/08/31 02:58:17;;;;;;;46.92;13.52;;;;;;;;;;5001301;28;20247;-79
2023/08/31 03:00:45;;;;;;;67.72;14.80;;;;;;;;;;5000512;28;20278;-80
2023/08/31 03:03:12;;;;;;;49.17;9.75;;;;;;;;;;5000714;28;20263;-77
2023/08/31 03:05:39;;;;;;;32.58;6.38;;;;;;;;;;4997143;28;20324;-80
2023/08/31 03:08:05;;;;;;;54.85;10.30;;;;;;;;;;4997502;28;20258;-80
2023/08/31 03:10:32;;;;;;;37.83;7.40;;;;;;;;;;4999387;28;20250;-79
2023/08/31 03:12:59;;;;;;;35.58;7.70;;;;;;;;;;5001336;28;20242;-80
2023/08/31 03:15:25;;;;;;;29.55;7.05;;;;;;;;;;5002222;28;20228;-81
2023/08/31 03:17:52;;;;;;;65.07;16.73;;;;;;;;;;4998605;28;20227;-80
2023/08/31 03:20:20;;;;;;;47.45;22.17;;;;;;;;;;4986492;28;20381;-79
2023/08/31 03:22:47;;;;;;;59.80;14.32;;;;;;;;;;4984602;28;20244;-80
2023/08/31 03:25:14;;;;;;;29.75;6.18;;;;;;;;;;5007747;28;20250;-80
2023/08/31 03:27:41;;;;;;;56.70;21.23;;;;;;;;;;5000753;28;20240;-78
2023/08/31 03:30:08;;;;;;;37.70;21.40;;;;;;;;;;4998830;28;20239;-80
2023/08/31 03:32:35;;;;;;;37.95;15.35;;;;;;;;;;4987505;28;20231;-80
2023/08/31 03:35:02;;;;;;;30.23;17.13;;;;;;;;;;4998216;28;20258;-81
2023/08/31 03:37:29;;;;;;;33.05;14.55;;;;;;;;;;5002718;28;20274;-80
2023/08/31 03:39:56;;;;;;;63.17;13.15;;;;;;;;;;4996047;28;20247;-80
2023/08/31 03:42:22;;;;;;;41.15;10.18;;;;;;;;;;5002109;28;20293;-80
2023/08/31 03:44:49;;;;;;;70.53;14.07;;;;;;;;;;4996291;28;20622;-80
2023/08/31 03:47:15;;;;;;;33.85;11.75;;;;;;;;;;5006319;28;20235;-80
2023/08/31 03:49:42;;;;;;;71.93;31.27;;;;;;;;;;4996235;28;20240;-79
2023/08/31 03:52:08;;;;;;;52.75;33.42;;;;;;;;;;5004691;28;20223;-81
2023/08/31 03:54:35;;;;;;;59.65;54.60;;;;;;;;;;5000413;28;20239;-80
2023/08/31 03:57:02;;;;;;;55.13;49.70;;;;;;;;;;5000284;28;20227;-81
2023/08/31 03:59:28;;;;;;;88.47;81.18;;;;;;;;;;5002309;28;20240;-80
2023/08/31 04:01:55;;;;;;;68.43;24.02;;;;;;;;;;4998931;28;20305;-81
2023/08/31 04:04:22;;;;;;;43.65;32.60;;;;;;;;;;4997788;28;20232;-80
2023/08/31 04:06:48;;;;;;;72.95;26.40;;;;;;;;;;4991406;28;20290;-79
2023/08/31 04:09:15;;;;;;;43.03;34.45;;;;;;;;;;5004817;28;20231;-80
2023/08/31 04:11:41;;;;;;;63.72;26.90;;;;;;;;;;4981315;28;20270;-80
2023/08/31 04:14:08;;;;;;;128.85;120.15;;;;;;;;;;5001901;28;20228;-81
2023/08/31 04:16:34;;;;;;;52.60;41.13;;;;;;;;;;4997993;28;20243;-80
2023/08/31 04:19:01;;;;;;;28.17;5.30;;;;;;;;;;4996969;28;20232;-80
2023/08/31 04:21:28;;;;;;;35.30;10.02;;;;;;;;;;5005420;28;20374;-80
2023/08/31 04:23:54;;;;;;;58.53;13.68;;;;;;;;;;4994832;28;20231;-81
2023/08/31 04:26:21;;;;;;;64.18;57.80;;;;;;;;;;5005073;28;20220;-80
2023/08/31 04:28:47;;;;;;;73.45;52.70;;;;;;;;;;4993910;28;20240;-81
2023/08/31 04:31:14;;;;;;;49.50;44.58;;;;;;;;;;5002334;28;20228;-80
2023/08/31 04:33:41;;;;;;;67.18;58.33;;;;;;;;;;4999429;28;20223;-80
2023/08/31 04:36:07;;;;;;;110.25;101.80;;;;;;;;;;5004483;28;20232;-80
2023/08/31 04:38:34;;;;;;;31.65;16.33;;;;;;;;;;5009257;28;20230;-80
2023/08/31 04:41:01;;;;;;;39.83;12.40;;;;;;;;;;5001774;28;20250;-80
2023/08/31 04:43:27;;;;;;;50.97;45.75;;;;;;;;;;5001434;28;20240;-80
2023/08/31 04:45:54;;;;;;;55.80;18.10;;;;;;;;;;4997759;28;20227;-79
2023/08/31 04:48:21;;;;;;;57.03;31.98;;;;;;;;;;4996319;28;20257;-80
2023/08/31 04:50:47;;;;;;;73.57;29.42;;;;;;;;;;4998194;28;20248;-80
2023/08/31 04:53:14;;;;;;;45.15;40.38;;;;;;;;;;4999796;28;20250;-81
2023/08/31 04:55:41;;;;;;;60.72;38.95;;;;;;;;;;4994946;28;20706;-80
2023/08/31 04:58:08;;;;;;;44.53;36.72;;;;;;;;;;5004596;28;20801;-81
2023/08/31 05:00:34;;;;;;;59.33;53.58;;;;;;;;;;4997273;28;20231;-82
2023/08/31 05:03:01;;;;;;;57.95;44.63;;;;;;;;;;4991326;28;20240;-83
2023/08/31 05:05:28;;;;;;;27.77;8.93;;;;;;;;;;5001697;28;20286;-83
2023/08/31 05:07:54;;;;;;;54.22;11.93;;;;;;;;;;4983613;28;20676;-79
2023/08/31 05:10:21;;;;;;;27.88;13.95;;;;;;;;;;4998976;28;20710;-82
2023/08/31 05:12:48;;;;;;;62.22;15.20;;;;;;;;;;4996977;28;20228;-82
2023/08/31 05:15:14;;;;;;;38.95;7.63;;;;;;;;;;4985871;28;20231;-82
2023/08/31 05:17:41;;;;;;;40.72;9.10;;;;;;;;;;4996211;28;20224;-81
2023/08/31 05:20:09;;;;;;;30.73;6.93;;;;;;;;;;5004719;28;20258;-82
2023/08/31 05:22:36;;;;;;;30.30;6.50;;;;;;;;;;5002379;28;20294;-82
2023/08/31 05:25:04;;;;;;;29.27;5.82;;;;;;;;;;5000519;28;20722;-82
2023/08/31 05:27:30;;;;;;;29.02;7.57;;;;;;;;;;4984036;28;20216;-82
2023/08/31 05:29:57;;;;;;;30.67;6.80;;;;;;;;;;4992700;28;20244;-82
2023/08/31 05:32:23;;;;;;;31.15;6.47;;;;;;;;;;4997374;28;20235;-81
2023/08/31 05:34:50;;;;;;;60.83;12.43;;;;;;;;;;4999846;28;20314;-82
2023/08/31 05:37:17;;;;;;;30.88;8.60;;;;;;;;;;5002398;28;20228;-82
2023/08/31 05:39:47;;;;;;;52.83;14.90;;;;;;;;;;4998553;28;20231;-82
2023/08/31 05:42:13;;;;;;;34.38;6.88;;;;;;;;;;5001393;28;20244;-81
2023/08/31 05:44:40;;;;;;;39.60;8.10;;;;;;;;;;4999081;28;20226;-83
2023/08/31 05:47:06;;;;;;;26.15;4.97;;;;;;;;;;5004464;28;20238;-82
2023/08/31 05:49:33;;;;;;;29.75;5.70;;;;;;;;;;5003522;28;20238;-83
2023/08/31 05:51:59;;;;;;;27.92;5.38;;;;;;;;;;4997227;28;20228;-81
2023/08/31 05:54:27;;;;;;;31.65;7.97;;;;;;;;;;5004909;28;20233;-82
2023/08/31 05:56:53;;;;;;;62.25;16.38;;;;;;;;;;5001134;28;20232;-81
2023/08/31 05:59:21;;;;;;;38.20;31.42;;;;;;;;;;5001636;28;20227;-83
2023/08/31 06:01:48;;;;;;;50.03;12.73;;;;;;;;;;4977582;28;20243;-83
2023/08/31 06:04:14;;;;;;;27.25;8.25;;;;;;;;;;5001476;28;20322;-83
2023/08/31 06:06:41;;;;;;;39.95;9.40;;;;;;;;;;4997089;28;20287;-83
2023/08/31 06:09:07;;;;;;;26.52;5.43;;;;;;;;;;4997835;28;20235;-83
2023/08/31 06:11:35;;;;;;;24.63;4.88;;;;;;;;;;5002942;28;20617;-82
2023/08/31 06:14:01;;;;;;;28.92;5.65;;;;;;;;;;5001523;28;20240;-84
2023/08/31 06:16:28;;;;;;;33.45;6.25;;;;;;;;;;5004837;28;20597;-82
2023/08/31 06:18:54;;;;;;;39.42;7.85;;;;;;;;;;4997554;28;20263;-83
2023/08/31 06:21:21;;;;;;;32.40;6.55;;;;;;;;;;5010598;28;20236;-83
2023/08/31 06:23:48;;;;;;;40.60;11.10;;;;;;;;;;4997342;28;20251;-83
2023/08/31 06:26:14;;;;;;;33.15;6.60;;;;;;;;;;5008680;28;20231;-82
2023/08/31 06:28:41;;;;;;;43.90;21.70;;;;;;;;;;5002389;28;20223;-85
2023/08/31 06:31:08;;;;;;;29.90;9.43;;;;;;;;;;5011704;28;20228;-82
2023/08/31 06:33:35;;;;;;;33.97;11.35;;;;;;;;;;5007724;28;20254;-83
2023/08/31 06:36:02;;;;;;;40.42;36.25;;;;;;;;;;5004313;28;20231;-83
2023/08/31 06:38:29;;;;;;;44.13;23.38;;;;;;;;;;5007530;28;20231;-82
2023/08/31 06:40:58;;;;;;;48.83;13.30;;;;;;;;;;4985917;28;20251;-81
2023/08/31 06:43:28;;;;;;;122.50;22.85;;;;;;;;;;4996475;28;20233;-81
2023/08/31 06:45:55;;;;;;;60.83;11.82;;;;;;;;;;4996948;28;20270;-83
2023/08/31 06:48:29;;;;;;;47.25;12.32;;;;;;;;;;5005870;28;20224;-80
2023/08/31 06:50:56;;;;;;;43.97;8.57;;;;;;;;;;4998893;28;20243;-81
2023/08/31 06:53:22;;;;;;;25.65;4.97;;;;;;;;;;5008970;28;20242;-80
2023/08/31 06:55:49;;;;;;;43.75;9.43;;;;;;;;;;4972197;28;20225;-81
2023/08/31 06:58:16;;;;;;;37.47;7.30;;;;;;;;;;5002137;28;20259;-85
2023/08/31 07:00:42;;;;;;;55.40;10.63;;;;;;;;;;4997896;28;20235;-81
2023/08/31 07:03:09;;;;;;;40.42;7.68;;;;;;;;;;5005366;28;20228;-83
2023/08/31 07:05:41;;;;;;;39.75;7.60;;;;;;;;;;4991377;28;20250;-82
2023/08/31 07:08:08;;;;;;;31.00;5.90;;;;;;;;;;4995973;28;20246;-83
2023/08/31 07:10:38;;;;;;;33.08;6.47;;;;;;;;;;5001583;28;20231;-83
2023/08/31 07:13:05;;;;;;;22.90;4.88;;;;;;;;;;4986454;28;20224;-82
2023/08/31 07:15:31;;;;;;;23.48;4.65;;;;;;;;;;4985747;28;20264;-84
2023/08/31 07:17:58;;;;;;;29.08;5.63;;;;;;;;;;4992438;28;20236;-82
2023/08/31 07:20:25;;;;;;;25.67;5.05;;;;;;;;;;4999002;28;20233;-82
2023/08/31 07:22:52;;;;;;;94.88;15.23;;;;;;;;;;4992337;28;20810;-83
2023/08/31 07:25:19;;;;;;;19.23;3.75;;;;;;;;;;4998207;28;20235;-83
2023/08/31 07:27:46;;;;;;;92.47;14.52;;;;;;;;;;4988566;28;20232;-82
2023/08/31 07:30:13;;;;;;;21.30;4.32;;;;;;;;;;4997270;28;20228;-83
2023/08/31 07:32:40;;;;;;;41.60;7.43;;;;;;;;;;4988952;28;20228;-83
2023/08/31 07:35:06;;;;;;;15.60;3.25;;;;;;;;;;5001843;28;20227;-84
2023/08/31 07:37:33;;;;;;;18.67;4.07;;;;;;;;;;4997685;28;20234;-84
2023/08/31 07:40:00;;;;;;;26.27;5.43;;;;;;;;;;4992242;28;20235;-83
2023/08/31 07:42:26;;;;;;;21.35;4.35;;;;;;;;;;4992205;28;20236;-84
2023/08/31 07:44:53;;;;;;;59.00;10.27;;;;;;;;;;4963268;28;20227;-84
2023/08/31 07:47:20;;;;;;;21.65;4.40;;;;;;;;;;4996196;28;20293;-82
2023/08/31 07:49:46;;;;;;;74.90;12.40;;;;;;;;;;4987631;28;20246;-83
2023/08/31 07:52:13;;;;;;;23.52;4.72;;;;;;;;;;4997131;28;20228;-83
2023/08/31 07:54:39;;;;;;;33.92;6.43;;;;;;;;;;4975492;28;20224;-84
2023/08/31 07:57:06;;;;;;;23.13;6.97;;;;;;;;;;4905487;28;20226;-84
2023/08/31 07:59:33;;;;;;;30.95;7.85;;;;;;;;;;4979141;28;20231;-83
2023/08/31 08:02:00;;;;;;;33.58;12.15;;;;;;;;;;4978286;28;20238;-83
2023/08/31 08:04:27;;;;;;;32.53;8.88;;;;;;;;;;4992980;28;20604;-83
2023/08/31 08:06:54;;;;;;;80.03;12.88;;;;;;;;;;4987740;28;20224;-83
2023/08/31 08:09:20;;;;;;;17.92;3.65;;;;;;;;;;4995452;28;20318;-85
2023/08/31 08:11:47;;;;;;;62.17;9.50;;;;;;;;;;4992234;28;20238;-84
2023/08/31 08:14:15;;;;;;;24.65;4.95;;;;;;;;;;4998287;28;20232;-83
2023/08/31 08:16:42;;;;;;;70.97;11.80;;;;;;;;;;4992391;28;20715;-83
2023/08/31 08:19:09;;;;;;;29.73;5.75;;;;;;;;;;4996388;28;20232;-82
2023/08/31 08:21:35;;;;;;;29.35;7.18;;;;;;;;;;4995271;28;20311;-83
2023/08/31 08:24:02;;;;;;;40.20;15.45;;;;;;;;;;4973645;28;20246;-83
2023/08/31 08:26:29;;;;;;;34.55;12.57;;;;;;;;;;4996844;28;20227;-84
2023/08/31 08:28:56;;;;;;;82.28;13.15;;;;;;;;;;4993153;28;20243;-83
2023/08/31 08:31:22;;;;;;;30.90;8.05;;;;;;;;;;4997471;28;20235;-84
2023/08/31 08:33:51;;;;;;;73.78;11.63;;;;;;;;;;4993140;28;20243;-83
2023/08/31 08:36:17;;;;;;;34.85;12.88;;;;;;;;;;4991910;28;20239;-82
2023/08/31 08:38:44;;;;;;;67.72;10.63;;;;;;;;;;4983488;28;20250;-83
2023/08/31 08:41:11;;;;;;;34.15;12.43;;;;;;;;;;4997159;28;20732;-84
2023/08/31 08:43:42;;;;;;;36.53;25.70;;;;;;;;;;4941446;28;20236;-85
2023/08/31 08:46:10;;;;;;;33.33;7.63;;;;;;;;;;4916513;28;20229;-83
2023/08/31 08:48:37;;;;;;;37.70;20.50;;;;;;;;;;4964083;28;20258;-85
2023/08/31 08:51:04;;;;;;;39.85;20.40;;;;;;;;;;4983298;28;20223;-83
2023/08/31 08:53:31;;;;;;;32.90;17.35;;;;;;;;;;4949256;28;20338;-85
2023/08/31 08:55:58;;;;;;;34.30;14.07;;;;;;;;;;4979233;28;20238;-83
2023/08/31 08:58:24;;;;;;;55.88;45.92;;;;;;;;;;4999141;28;20231;-83
2023/08/31 09:00:53;;;;;;;51.05;8.68;;;;;;;;;;4992610;28;20239;-84
2023/08/31 09:03:20;;;;;;;28.05;7.55;;;;;;;;;;4995152;28;20237;-84
2023/08/31 09:05:46;;;;;;;89.47;23.67;;;;;;;;;;4988872;28;20715;-84
2023/08/31 09:08:15;;;;;;;33.05;19.98;;;;;;;;;;4985731;28;20246;-86
2023/08/31 09:10:44;;;;;;;69.47;16.65;;;;;;;;;;4991891;28;20228;-84
2023/08/31 09:13:12;;;;;;;30.45;5.97;;;;;;;;;;4997024;28;20240;-85
2023/08/31 09:15:41;;;;;;;40.67;22.35;;;;;;;;;;4980001;28;20230;-87
2023/08/31 09:18:08;;;;;;;25.45;5.28;;;;;;;;;;4995300;28;20231;-85
2023/08/31 09:20:45;;;;;;;21.95;4.43;;;;;;;;;;4980453;28;20228;-84
2023/08/31 09:23:12;;;;;;;75.18;68.88;;;;;;;;;;4987207;28;20322;-85
2023/08/31 09:25:43;;;;;;;61.25;48.00;;;;;;;;;;4979159;28;20227;-84
2023/08/31 09:28:11;;;;;;;36.92;20.27;;;;;;;;;;4959853;28;20590;-85
2023/08/31 09:30:40;;;;;;;43.75;34.83;;;;;;;;;;4988219;28;20236;-84
2023/08/31 09:33:08;;;;;;;20.92;4.07;;;;;;;;;;4978019;28;20227;-84
2023/08/31 09:35:39;;;;;;;24.88;5.28;;;;;;;;;;4990342;28;20247;-84
2023/08/31 09:38:08;;;;;;;23.90;4.85;;;;;;;;;;4980831;28;20236;-85
2023/08/31 09:40:36;;;;;;;22.73;4.57;;;;;;;;;;4999402;28;20688;-84
2023/08/31 09:43:03;;;;;;;49.22;44.88;;;;;;;;;;4994816;28;20231;-82
2023/08/31 09:45:31;;;;;;;46.35;18.35;;;;;;;;;;4986065;28;20238;-83
2023/08/31 09:48:11;;;;;;;26.63;9.88;;;;;;;;;;4989939;28;20223;-85
2023/08/31 09:50:38;;;;;;;26.33;5.13;;;;;;;;;;4994920;28;20237;-85
2023/08/31 09:53:08;;;;;;;19.70;4.28;;;;;;;;;;4985443;28;20279;-84
2023/08/31 09:55:35;;;;;;;22.63;4.60;;;;;;;;;;5002003;28;20311;-83
2023/08/31 09:58:02;;;;;;;17.92;3.67;;;;;;;;;;4996839;28;20246;-81
2023/08/31 10:00:41;;;;;;;49.80;8.45;;;;;;;;;;4988511;28;20246;-83
2023/08/31 10:03:09;;;;;;;60.72;54.50;;;;;;;;;;4971452;28;20243;-83
2023/08/31 10:05:37;;;;;;;32.60;21.85;;;;;;;;;;4983451;28;20227;-82
2023/08/31 10:08:04;;;;;;;19.70;4.03;;;;;;;;;;4993083;28;20238;-83
2023/08/31 10:10:31;;;;;;;29.42;17.20;;;;;;;;;;4996015;28;20226;-83
2023/08/31 10:12:58;;;;;;;29.35;5.97;;;;;;;;;;4975384;28;20239;-84
2023/08/31 10:15:26;;;;;;;31.88;7.22;;;;;;;;;;5000145;28;20246;-83
2023/08/31 10:17:53;;;;;;;65.45;11.32;;;;;;;;;;4987598;28;20232;-84
2023/08/31 10:20:19;;;;;;;16.17;3.47;;;;;;;;;;4996699;28;20231;-85
2023/08/31 10:22:46;;;;;;;52.83;8.57;;;;;;;;;;4970254;28;20226;-82
2023/08/31 10:25:13;;;;;;;21.77;6.13;;;;;;;;;;4996398;28;20240;-83
2023/08/31 10:27:41;;;;;;;57.95;35.47;;;;;;;;;;4989606;28;20223;-83
2023/08/31 10:30:14;;;;;;;29.23;5.88;;;;;;;;;;4999205;28;20227;-83
2023/08/31 10:32:41;;;;;;;51.38;27.83;;;;;;;;;;4993205;28;20242;-83
2023/08/31 10:35:08;;;;;;;49.47;40.92;;;;;;;;;;4981784;28;20235;-82
2023/08/31 10:37:35;;;;;;;32.33;10.55;;;;;;;;;;4996379;28;20250;-83
2023/08/31 10:40:08;;;;;;;32.90;21.05;;;;;;;;;;4969154;28;20227;-81
2023/08/31 10:42:46;;;;;;;39.80;26.75;;;;;;;;;;5002729;28;20261;-83
2023/08/31 10:45:13;;;;;;;32.58;6.18;;;;;;;;;;4996289;28;20231;-83
2023/08/31 10:47:40;;;;;;;36.35;7.90;;;;;;;;;;4995351;28;20227;-82
2023/08/31 10:50:21;;;;;;;33.58;12.38;;;;;;;;;;4995408;28;20247;-84
2023/08/31 10:52:49;;;;;;;47.05;9.52;;;;;;;;;;4978635;28;20245;-83
2023/08/31 10:55:15;;;;;;;25.73;4.85;;;;;;;;;;4994621;28;20227;-83
2023/08/31 10:57:42;;;;;;;55.30;10.65;;;;;;;;;;4985700;28;20236;-85
2023/08/31 11:00:09;;;;;;;19.42;3.95;;;;;;;;;;4998246;28;20242;-84
2023/08/31 11:02:41;;;;;;;19.48;4.22;;;;;;;;;;4998592;28;20238;-84
2023/08/31 11:05:12;;;;;;;26.63;5.28;;;;;;;;;;4997329;28;20306;-84
2023/08/31 11:07:40;;;;;;;34.90;20.63;;;;;;;;;;4998476;28;20283;-83
2023/08/31 11:10:09;;;;;;;21.23;4.38;;;;;;;;;;4969423;28;20246;-85
2023/08/31 11:12:37;;;;;;;21.48;4.82;;;;;;;;;;4981240;28;20219;-84
2023/08/31 11:15:03;;;;;;;22.63;4.63;;;;;;;;;;4998337;28;20227;-85
2023/08/31 11:17:32;;;;;;;39.55;26.23;;;;;;;;;;5001585;28;20227;-83
2023/08/31 11:19:59;;;;;;;39.53;27.45;;;;;;;;;;4999654;28;20239;-81
2023/08/31 11:22:26;;;;;;;23.45;4.95;;;;;;;;;;5000391;28;20230;-83
2023/08/31 11:24:53;;;;;;;73.45;11.88;;;;;;;;;;4995468;28;20227;-84
2023/08/31 11:27:20;;;;;;;22.65;8.07;;;;;;;;;;4985882;28;20226;-84
2023/08/31 11:29:47;;;;;;;53.10;13.32;;;;;;;;;;4981213;28;20238;-84
2023/08/31 11:32:13;;;;;;;31.88;12.27;;;;;;;;;;4986255;28;20232;-84
2023/08/31 11:34:42;;;;;;;41.67;8.10;;;;;;;;;;4960623;28;20227;-81
2023/08/31 11:37:09;;;;;;;24.15;5.00;;;;;;;;;;5000801;28;20237;-84
2023/08/31 11:39:36;;;;;;;35.20;7.20;;;;;;;;;;4993237;28;20239;-84
2023/08/31 11:42:04;;;;;;;36.78;6.90;;;;;;;;;;4983593;28;20231;-83
2023/08/31 11:44:30;;;;;;;43.03;8.20;;;;;;;;;;4989567;28;20251;-82
2023/08/31 11:46:57;;;;;;;50.92;9.88;;;;;;;;;;4984666;28;20247;-84
2023/08/31 11:49:26;;;;;;;66.53;39.88;;;;;;;;;;4972852;28;20303;-83
2023/08/31 11:51:52;;;;;;;65.22;13.25;;;;;;;;;;4983970;28;20254;-82
2023/08/31 11:54:19;;;;;;;45.08;40.38;;;;;;;;;;5001579;28;20227;-83
2023/08/31 11:56:48;;;;;;;75.15;37.28;;;;;;;;;;4992913;28;20227;-85
2023/08/31 11:59:15;;;;;;;56.45;12.95;;;;;;;;;;4994189;28;20231;-84
2023/08/31 12:01:42;;;;;;;64.28;13.10;;;;;;;;;;4984216;28;20223;-84
2023/08/31 12:04:09;;;;;;;48.33;9.20;;;;;;;;;;4991315;28;20239;-84
2023/08/31 12:06:36;;;;;;;58.60;52.33;;;;;;;;;;4996030;28;20250;-84
2023/08/31 12:09:04;;;;;;;68.05;61.65;;;;;;;;;;4986942;28;20228;-83
2023/08/31 12:11:31;;;;;;;40.17;17.70;;;;;;;;;;4995302;28;20248;-86
2023/08/31 12:14:01;;;;;;;26.70;9.45;;;;;;;;;;4964735;28;20292;-84
2023/08/31 12:16:35;;;;;;;40.33;15.15;;;;;;;;;;4992416;28;20246;-84
2023/08/31 12:19:02;;;;;;;29.15;8.27;;;;;;;;;;4995363;28;20235;-84
2023/08/31 12:21:30;;;;;;;31.33;12.32;;;;;;;;;;4998760;28;20227;-83
2023/08/31 12:23:59;;;;;;;63.60;11.05;;;;;;;;;;4989345;28;20246;-85
2023/08/31 12:26:30;;;;;;;47.50;42.15;;;;;;;;;;4994609;28;20223;-85
2023/08/31 12:28:57;;;;;;;69.03;11.57;;;;;;;;;;4995390;28;20324;-84
2023/08/31 12:31:24;;;;;;;42.50;29.60;;;;;;;;;;4999864;28;20223;-85
2023/08/31 12:33:51;;;;;;;66.30;10.82;;;;;;;;;;4991487;28;20737;-82
2023/08/31 12:36:17;;;;;;;53.38;47.72;;;;;;;;;;5000207;28;20227;-84
2023/08/31 12:38:44;;;;;;;72.30;12.05;;;;;;;;;;4990368;28;20240;-84
2023/08/31 12:41:11;;;;;;;20.88;4.45;;;;;;;;;;4994303;28;20285;-86
2023/08/31 12:43:38;;;;;;;18.20;3.63;;;;;;;;;;4996681;28;20589;-84
2023/08/31 12:46:05;;;;;;;23.83;4.72;;;;;;;;;;4988870;28;20242;-84
2023/08/31 12:48:32;;;;;;;75.40;64.40;;;;;;;;;;4984952;28;20238;-86
2023/08/31 12:50:59;;;;;;;82.47;75.53;;;;;;;;;;4990366;28;20297;-83
2023/08/31 12:53:26;;;;;;;16.77;3.35;;;;;;;;;;4988519;28;20327;-85
2023/08/31 12:55:53;;;;;;;82.88;13.98;;;;;;;;;;4991234;28;20227;-84
2023/08/31 12:58:21;;;;;;;53.42;42.08;;;;;;;;;;4992948;28;20229;-84
2023/08/31 13:00:50;;;;;;;69.30;31.25;;;;;;;;;;4983883;28;20713;-86
2023/08/31 13:03:17;;;;;;;78.25;70.90;;;;;;;;;;4971908;28;20238;-84
2023/08/31 13:05:44;;;;;;;72.40;51.30;;;;;;;;;;4979964;28;20314;-85
2023/08/31 13:08:10;;;;;;;26.85;8.30;;;;;;;;;;5001000;28;20220;-84
2023/08/31 13:10:38;;;;;;;43.25;31.23;;;;;;;;;;4989406;28;20230;-83
2023/08/31 13:13:05;;;;;;;24.88;13.90;;;;;;;;;;4986596;28;20289;-84
2023/08/31 13:15:33;;;;;;;35.92;22.58;;;;;;;;;;4997389;28;20223;-83
2023/08/31 13:17:59;;;;;;;127.70;117.90;;;;;;;;;;4991372;28;20243;-83
2023/08/31 13:20:27;;;;;;;21.83;4.35;;;;;;;;;;4976020;28;20642;-83
2023/08/31 13:22:54;;;;;;;75.90;12.18;;;;;;;;;;4985570;28;20215;-83
2023/08/31 13:25:20;;;;;;;27.60;5.25;;;;;;;;;;4997514;28;20238;-83
2023/08/31 13:27:47;;;;;;;80.63;13.45;;;;;;;;;;4993595;28;20241;-84
2023/08/31 13:30:14;;;;;;;22.65;4.68;;;;;;;;;;4996741;28;20238;-84
2023/08/31 13:32:41;;;;;;;40.60;7.30;;;;;;;;;;4993999;28;20313;-83
2023/08/31 13:35:08;;;;;;;31.95;13.18;;;;;;;;;;4994498;28;20238;-82
2023/08/31 13:37:34;;;;;;;105.00;95.50;;;;;;;;;;4995435;28;20298;-82
2023/08/31 13:40:03;;;;;;;27.70;5.85;;;;;;;;;;4987986;28;20242;-83
2023/08/31 13:42:33;;;;;;;19.83;4.03;;;;;;;;;;4997678;28;20732;-86
2023/08/31 13:45:00;;;;;;;28.38;5.38;;;;;;;;;;4982617;28;20240;-85
2023/08/31 13:47:26;;;;;;;18.50;3.92;;;;;;;;;;5001166;28;20723;-85
2023/08/31 13:49:53;;;;;;;73.25;11.88;;;;;;;;;;4996985;28;20246;-84
2023/08/31 13:52:21;;;;;;;18.42;3.83;;;;;;;;;;5004920;28;20245;-84
2023/08/31 13:54:47;;;;;;;54.70;9.15;;;;;;;;;;4996499;28;20241;-85
2023/08/31 13:57:17;;;;;;;18.88;4.03;;;;;;;;;;4995057;28;20228;-83
2023/08/31 13:59:44;;;;;;;66.85;11.93;;;;;;;;;;4995775;28;20321;-83
2023/08/31 14:02:10;;;;;;;18.42;3.88;;;;;;;;;;4999372;28;20239;-85
2023/08/31 14:04:37;;;;;;;15.95;3.42;;;;;;;;;;5002903;28;20227;-85
2023/08/31 14:07:04;;;;;;;17.52;3.67;;;;;;;;;;4999462;28;20257;-80
2023/08/31 14:09:31;;;;;;;70.57;63.95;;;;;;;;;;5001650;28;20234;-83
2023/08/31 14:11:58;;;;;;;29.77;5.53;;;;;;;;;;4995873;28;20243;-84
2023/08/31 14:14:25;;;;;;;21.40;4.70;;;;;;;;;;5000553;28;20222;-86
2023/08/31 14:16:51;;;;;;;84.50;12.93;;;;;;;;;;4982199;28;20239;-85
2023/08/31 14:19:19;;;;;;;19.15;4.43;;;;;;;;;;4996479;28;20227;-84
2023/08/31 14:21:47;;;;;;;69.90;11.25;;;;;;;;;;4999472;28;20227;-83
2023/08/31 14:24:14;;;;;;;27.13;5.20;;;;;;;;;;4986807;28;20230;-85